Time;durP1;ratioP1;P1;durP2;ratioP2;P2;SDS_P1;SDS_P2;PMS_P1;PMS_P2;Temp;Humidity;BMP_temperature;BMP_pressure;BME280_temperature;BME280_humidity;BME280_pressure;Samples;Min_cycle;Max_cycle;Signal;HPM_P1;HPM_P2
2023/06/30 09:10:26;;;;;;;6.80;4.40;;;;;;;24.32;59.62;99151.29;108417;1275;22441;-41
2023/06/30 09:12:54;;;;;;;4.60;4.20;;;;;;;24.34;58.46;99150.27;111701;1244;22507;-44
2023/06/30 09:15:21;;;;;;;7.80;4.90;;;;;;;24.33;58.92;99147.86;111705;1257;22984;-42
2023/06/30 09:17:48;;;;;;;4.60;4.10;;;;;;;24.37;59.65;99154.02;110201;1252;22510;-44
2023/06/30 09:20:15;;;;;;;7.20;3.80;;;;;;;24.49;58.42;99147.40;111982;1250;22551;-44
2023/06/30 09:22:42;;;;;;;5.40;4.10;;;;;;;24.51;58.62;99148.31;112068;1257;22293;-44
2023/06/30 09:25:25;;;;;;;5.10;4.00;;;;;;;24.47;58.44;99152.38;110661;1248;22430;-42
2023/06/30 09:27:52;;;;;;;5.00;3.80;;;;;;;24.51;57.95;99142.98;112241;1241;22521;-41
2023/06/30 09:30:31;;;;;;;8.20;4.60;;;;;;;24.57;57.66;99137.72;111626;1245;22467;-44
2023/06/30 09:32:58;;;;;;;7.00;4.60;;;;;;;24.66;57.25;99140.55;112211;1244;22412;-42
2023/06/30 09:35:25;;;;;;;9.70;4.50;;;;;;;24.77;55.71;99147.45;111469;1244;22881;-45
2023/06/30 09:37:53;;;;;;;5.00;4.20;;;;;;;24.83;55.41;99136.80;111926;1243;22426;-45
2023/06/30 09:40:26;;;;;;;8.10;4.40;;;;;;;24.83;55.45;99134.08;112023;1244;22499;-44
2023/06/30 09:42:55;;;;;;;8.00;3.70;;;;;;;24.75;55.75;99135.65;110210;1244;23417;-42
2023/06/30 09:45:22;;;;;;;11.00;4.90;;;;;;;24.72;55.85;99137.28;112103;1245;23047;-44
2023/06/30 09:47:52;;;;;;;5.10;4.30;;;;;;;24.85;56.08;99129.14;112416;1241;22663;-45
2023/06/30 09:50:34;;;;;;;5.10;4.20;;;;;;;25.01;55.13;99130.02;112728;1240;22384;-45
2023/06/30 09:53:01;;;;;;;5.80;4.50;;;;;;;25.10;54.63;99120.84;112569;1248;22522;-43
2023/06/30 09:55:28;;;;;;;4.90;4.40;;;;;;;25.15;53.64;99129.86;112518;1240;22215;-43
2023/06/30 09:57:57;;;;;;;4.90;4.10;;;;;;;25.17;52.29;99131.64;112251;1240;22424;-42
2023/06/30 10:00:25;;;;;;;7.70;4.40;;;;;;;25.16;50.81;99127.65;112705;1239;22319;-43
2023/06/30 10:03:04;;;;;;;4.10;3.70;;;;;;;25.15;50.54;99129.87;112600;1241;23236;-43
2023/06/30 10:05:33;;;;;;;9.10;4.40;;;;;;;25.23;50.79;99125.27;110365;1240;22556;-41
2023/06/30 10:08:00;;;;;;;5.40;4.30;;;;;;;25.36;50.10;99128.01;110497;1244;22297;-42
2023/06/30 10:10:27;;;;;;;5.90;4.10;;;;;;;25.42;50.04;99127.40;112261;1241;22411;-42
2023/06/30 10:12:58;;;;;;;4.20;3.80;;;;;;;25.43;49.94;99125.11;112473;1241;22558;-42
2023/06/30 10:15:25;;;;;;;5.30;4.80;;;;;;;25.35;49.22;99122.95;110108;1237;22527;-41
2023/06/30 10:17:54;;;;;;;4.30;3.90;;;;;;;25.24;49.94;99123.25;109976;1251;23084;-43
2023/06/30 10:20:20;;;;;;;8.10;4.30;;;;;;;25.15;49.70;99125.95;110596;1243;22423;-44
2023/06/30 10:23:00;;;;;;;5.30;4.10;;;;;;;25.03;50.09;99123.27;110094;1251;22490;-44
2023/06/30 10:25:28;;;;;;;8.50;4.30;;;;;;;24.92;50.05;99127.19;109541;1244;22512;-41
2023/06/30 10:27:55;;;;;;;7.50;4.30;;;;;;;24.89;50.66;99120.84;110395;1242;22988;-44
2023/06/30 10:30:22;;;;;;;5.40;4.40;;;;;;;24.91;50.50;99118.48;110223;1241;22619;-43
2023/06/30 10:32:49;;;;;;;4.70;4.30;;;;;;;24.94;50.58;99120.96;110027;1241;22523;-46
2023/06/30 10:35:16;;;;;;;4.80;4.30;;;;;;;24.90;50.38;99124.67;110282;1242;24569;-42
2023/06/30 10:37:43;;;;;;;5.90;4.40;;;;;;;24.75;50.55;99122.94;111341;1240;22634;-43
2023/06/30 10:40:29;;;;;;;7.80;3.70;;;;;;;24.68;51.39;99124.53;110217;1249;24216;-44
2023/06/30 10:42:57;;;;;;;4.70;4.20;;;;;;;24.98;51.90;99117.28;112788;1241;22997;-43
2023/06/30 10:45:28;;;;;;;4.60;4.10;;;;;;;25.43;51.56;99113.54;111595;1249;25434;-42
2023/06/30 10:47:57;;;;;;;7.30;4.70;;;;;;;25.77;49.93;99113.67;110286;1239;25409;-43
2023/06/30 10:50:24;;;;;;;6.60;4.40;;;;;;;25.86;48.07;99113.17;109664;1242;22525;-44
2023/06/30 10:52:53;;;;;;;5.00;4.20;;;;;;;25.82;46.99;99111.13;110436;1237;23285;-41
2023/06/30 10:55:26;;;;;;;5.10;4.60;;;;;;;25.82;47.19;99102.41;110005;1252;22609;-43
2023/06/30 10:57:53;;;;;;;5.40;4.20;;;;;;;25.94;47.55;99104.78;112240;1240;22416;-42
2023/06/30 11:00:22;;;;;;;8.00;4.10;;;;;;;26.20;46.29;99101.16;112799;1237;22256;-44
2023/06/30 11:02:57;;;;;;;4.90;4.20;;;;;;;26.47;45.17;99103.44;111274;1241;22508;-42
2023/06/30 11:05:24;;;;;;;4.70;4.20;;;;;;;26.50;44.79;99101.20;109978;1246;22520;-42
2023/06/30 11:08:07;;;;;;;7.30;3.50;;;;;;;26.39;45.20;99092.97;109608;1239;22511;-42
2023/06/30 11:10:36;;;;;;;5.20;3.80;;;;;;;26.42;45.12;99095.66;110243;1240;22517;-44
2023/06/30 11:13:09;;;;;;;9.90;4.20;;;;;;;26.64;44.59;99092.52;110236;1249;22598;-44
2023/06/30 11:15:43;;;;;;;5.80;4.30;;;;;;;26.88;43.84;99094.25;110043;1243;22505;-42
2023/06/30 11:18:17;;;;;;;5.60;4.00;;;;;;;27.03;43.42;99094.35;109985;1240;25270;-44
2023/06/30 11:20:56;;;;;;;;;;;;;;;27.16;43.24;99085.00;110118;1241;22503;-45
2023/06/30 11:23:25;;;;;;;8.00;5.00;;;;;;;27.31;43.09;99092.23;110514;1240;24188;-43
2023/06/30 11:25:51;;;;;;;4.30;3.80;;;;;;;27.39;41.81;99088.91;110090;1250;22508;-43
2023/06/30 11:28:19;;;;;;;5.40;3.60;;;;;;;27.33;41.97;99082.98;109743;1250;22619;-43
2023/06/30 11:30:46;;;;;;;5.70;4.80;;;;;;;27.27;41.90;99074.34;110323;1242;24724;-45
2023/06/30 11:33:13;;;;;;;10.20;4.10;;;;;;;27.24;42.01;99084.33;110156;1240;23857;-43
2023/06/30 11:35:40;;;;;;;4.70;3.60;;;;;;;27.13;41.72;99083.69;109860;1240;27728;-42
2023/06/30 11:38:10;;;;;;;4.30;3.90;;;;;;;26.94;42.21;99080.65;109870;1250;24265;-42
2023/06/30 11:40:48;;;;;;;4.50;3.70;;;;;;;26.66;43.89;99093.38;109861;1240;22516;-44
2023/06/30 11:43:14;;;;;;;9.70;3.90;;;;;;;26.44;45.00;99085.41;110199;1250;22543;-44
2023/06/30 11:45:43;;;;;;;5.70;4.00;;;;;;;26.41;45.46;99083.60;110688;1238;25344;-42
2023/06/30 11:48:11;;;;;;;6.60;4.00;;;;;;;26.44;45.10;99085.05;109880;1241;22997;-42
2023/06/30 11:50:38;;;;;;;6.50;3.90;;;;;;;26.51;45.44;99081.97;110317;1250;22559;-42
2023/06/30 11:53:06;;;;;;;7.60;4.30;;;;;;;26.49;45.14;99090.73;109956;1238;22487;-45
2023/06/30 11:55:33;;;;;;;3.80;3.50;;;;;;;26.29;45.87;99096.15;110253;1250;22505;-45
2023/06/30 11:58:00;;;;;;;6.90;4.40;;;;;;;26.03;46.76;99094.77;109876;1236;26564;-45
2023/06/30 12:00:29;;;;;;;3.50;3.20;;;;;;;25.75;47.19;99097.61;110306;1250;22514;-43
2023/06/30 12:02:57;;;;;;;5.30;4.00;;;;;;;25.48;49.15;99086.92;109910;1242;24361;-43
2023/06/30 12:05:27;;;;;;;7.80;4.40;;;;;;;25.32;50.67;99089.44;110510;1248;25796;-44
2023/06/30 12:07:56;;;;;;;5.50;4.60;;;;;;;25.30;51.27;99089.78;110672;1250;22507;-45
2023/06/30 12:10:38;;;;;;;3.40;3.10;;;;;;;25.36;51.44;99080.89;110463;1250;26644;-41
2023/06/30 12:13:08;;;;;;;5.10;3.90;;;;;;;25.50;51.69;99076.94;110399;1249;22493;-42
2023/06/30 12:15:36;;;;;;;8.90;3.70;;;;;;;25.64;51.15;99070.10;110033;1250;22508;-42
2023/06/30 12:18:06;;;;;;;4.50;3.90;;;;;;;25.78;50.40;99077.86;110246;1239;24035;-42
2023/06/30 12:20:37;;;;;;;5.20;4.00;;;;;;;25.83;50.37;99078.00;109978;1250;25217;-45
2023/06/30 12:23:05;;;;;;;4.70;4.00;;;;;;;25.74;50.19;99095.85;109991;1240;22573;-44
2023/06/30 12:25:35;;;;;;;7.20;4.10;;;;;;;25.44;49.51;99097.96;110243;1239;22567;-43
